Time;durP1;ratioP1;P1;durP2;ratioP2;P2;SDS_P1;SDS_P2;PMS_P1;PMS_P2;Temp;Humidity;BMP_temperature;BMP_pressure;BME280_temperature;BME280_humidity;BME280_pressure;Samples;Min_cycle;Max_cycle;Signal;HPM_P1;HPM_P2
2021/01/05 00:00:03;;;;;;;8.43;3.70;;;28.50;43.30;;;;;;4974622;28;20355;-50
2021/01/05 00:02:29;;;;;;;8.13;3.70;;;28.40;43.20;;;;;;4974891;28;20398;-50
2021/01/05 00:04:56;;;;;;;7.07;3.42;;;28.40;43.30;;;;;;4974577;28;20031;-50
2021/01/05 00:07:22;;;;;;;8.40;3.45;;;28.30;43.40;;;;;;4974751;28;20126;-50
2021/01/05 00:09:49;;;;;;;8.00;3.55;;;28.20;43.40;;;;;;4974774;28;20031;-50
2021/01/05 00:12:17;;;;;;;8.00;3.80;;;28.10;43.40;;;;;;4974706;28;20034;-50
2021/01/05 00:14:45;;;;;;;9.45;3.88;;;28.10;43.50;;;;;;4974944;28;20069;-50
2021/01/05 00:17:17;;;;;;;7.78;3.67;;;28.00;43.50;;;;;;4974657;28;20027;-50
2021/01/05 00:19:45;;;;;;;8.18;3.80;;;27.90;43.50;;;;;;4975156;28;20027;-50
2021/01/05 00:22:13;;;;;;;12.10;3.70;;;27.80;43.60;;;;;;4974560;28;20114;-50
2021/01/05 00:24:40;;;;;;;8.32;3.47;;;27.70;43.70;;;;;;4974549;28;20027;-50
2021/01/05 00:27:07;;;;;;;7.47;3.38;;;27.60;43.80;;;;;;4974522;28;20066;-50
2021/01/05 00:29:34;;;;;;;7.03;2.95;;;27.50;43.90;;;;;;4975029;28;20027;-50
2021/01/05 00:32:18;;;;;;;5.60;2.95;;;27.40;44.00;;;;;;4974056;28;20073;-50
2021/01/05 00:34:45;;;;;;;8.68;3.40;;;27.30;44.00;;;;;;4974501;28;20077;-50
2021/01/05 00:37:14;;;;;;;5.80;3.33;;;27.20;44.20;;;;;;4973470;28;20018;-50
2021/01/05 00:39:41;;;;;;;6.82;3.45;;;27.10;44.30;;;;;;4967276;28;20035;-50
2021/01/05 00:42:08;;;;;;;7.97;3.45;;;27.00;44.30;;;;;;4973549;28;20035;-50
2021/01/05 00:44:35;;;;;;;6.65;3.30;;;26.80;44.40;;;;;;4974264;28;20019;-50
2021/01/05 00:47:02;;;;;;;6.90;3.20;;;26.80;44.50;;;;;;4973775;28;20035;-50
2021/01/05 00:49:28;;;;;;;29.75;21.13;;;26.70;44.70;;;;;;4974374;28;20076;-50
2021/01/05 00:51:55;;;;;;;13.52;8.32;;;26.50;44.70;;;;;;4973756;28;20038;-50
2021/01/05 00:54:21;;;;;;;11.43;4.75;;;26.50;44.90;;;;;;4974084;28;20042;-50
2021/01/05 00:57:02;;;;;;;11.45;5.28;;;26.40;45.00;;;;;;4974118;28;20095;-50
2021/01/05 00:59:29;;;;;;;23.77;13.77;;;26.30;45.10;;;;;;4973472;28;20540;-50
2021/01/05 01:01:58;;;;;;;16.25;8.10;;;26.10;45.30;;;;;;4973817;28;20051;-50
2021/01/05 01:04:26;;;;;;;14.57;8.63;;;26.10;45.50;;;;;;4973965;28;20023;-50
2021/01/05 01:06:53;;;;;;;15.10;9.18;;;26.00;45.70;;;;;;4973598;28;20034;-50
2021/01/05 01:09:20;;;;;;;15.98;8.15;;;25.90;45.90;;;;;;4973851;28;20034;-50
2021/01/05 01:12:23;;;;;;;15.50;7.90;;;25.90;46.00;;;;;;4973693;28;20076;-50
2021/01/05 01:14:52;;;;;;;16.23;7.38;;;25.90;46.20;;;;;;4973722;28;20039;-50
2021/01/05 01:17:21;;;;;;;11.13;7.38;;;25.80;46.30;;;;;;4970227;28;20027;-50
2021/01/05 01:19:47;;;;;;;18.67;7.13;;;25.90;46.50;;;;;;4971718;28;20026;-49
2021/01/05 01:22:17;;;;;;;14.23;6.57;;;25.90;46.50;;;;;;4973462;28;20055;-50
2021/01/05 01:24:44;;;;;;;15.23;6.35;;;25.90;46.50;;;;;;4973355;28;20059;-50
2021/01/05 01:27:10;;;;;;;12.25;6.18;;;25.90;46.50;;;;;;4974112;28;20035;-50
2021/01/05 01:29:37;;;;;;;10.32;5.55;;;26.00;46.50;;;;;;4973458;28;20106;-50
2021/01/05 01:32:03;;;;;;;10.68;5.38;;;26.00;46.50;;;;;;4973468;28;20027;-50
2021/01/05 01:34:30;;;;;;;10.65;5.50;;;26.10;46.50;;;;;;4973394;28;20164;-50
2021/01/05 01:37:03;;;;;;;19.70;7.22;;;26.10;46.50;;;;;;4973736;28;20027;-50
2021/01/05 01:39:31;;;;;;;15.48;5.78;;;26.10;46.40;;;;;;4973397;28;20018;-50
2021/01/05 01:42:00;;;;;;;10.45;5.53;;;26.10;46.40;;;;;;4973410;28;20489;-50
2021/01/05 01:44:32;;;;;;;9.77;4.95;;;26.10;46.40;;;;;;4972975;28;20033;-50
2021/01/05 01:47:05;;;;;;;9.80;5.10;;;26.10;46.30;;;;;;4973189;28;20031;-50
2021/01/05 01:49:32;;;;;;;8.68;4.88;;;26.10;46.30;;;;;;4973038;28;20488;-50
2021/01/05 01:52:00;;;;;;;9.35;4.85;;;26.10;46.30;;;;;;4972158;28;20039;-50
2021/01/05 01:55:00;;;;;;;11.13;4.60;;;26.00;46.20;;;;;;4972017;28;20027;-50
2021/01/05 01:57:56;;;;;;;12.82;4.65;;;26.00;46.30;;;;;;4973246;28;20023;-50
2021/01/05 02:00:57;;;;;;;7.68;4.68;;;26.00;46.30;;;;;;4973375;28;20489;-50
2021/01/05 02:03:39;;;;;;;7.85;4.53;;;26.00;46.40;;;;;;4972321;28;20047;-50
2021/01/05 02:06:25;;;;;;;12.93;5.15;;;25.90;46.60;;;;;;4973909;28;20062;-50
2021/01/05 02:09:40;;;;;;;7.55;3.95;;;25.90;46.70;;;;;;4973042;28;20019;-50
2021/01/05 02:12:19;;;;;;;11.07;4.68;;;25.90;46.80;;;;;;4972307;28;20023;-50
2021/01/05 02:15:05;;;;;;;8.77;4.38;;;25.90;46.90;;;;;;4972866;28;20034;-50
2021/01/05 02:17:52;;;;;;;10.25;4.32;;;25.90;46.90;;;;;;4972326;28;20027;-50
2021/01/05 02:20:42;;;;;;;8.43;3.63;;;25.90;46.80;;;;;;4952286;28;20127;-50
2021/01/05 02:23:30;;;;;;;6.20;3.47;;;25.90;46.80;;;;;;4973358;28;20065;-50
2021/01/05 02:26:07;;;;;;;8.68;3.33;;;26.00;46.80;;;;;;4972815;28;20027;-50
2021/01/05 02:28:40;;;;;;;11.07;3.85;;;26.10;46.80;;;;;;4972739;28;20084;-49
2021/01/05 02:31:17;;;;;;;7.88;3.88;;;26.10;46.70;;;;;;4972219;28;20088;-50
2021/01/05 02:34:10;;;;;;;8.32;3.33;;;26.10;46.60;;;;;;4972803;28;20070;-50
2021/01/05 02:36:48;;;;;;;7.07;3.20;;;26.20;46.60;;;;;;4972877;28;20027;-49
2021/01/05 02:39:36;;;;;;;10.93;3.30;;;26.20;46.50;;;;;;4973393;28;20043;-50
2021/01/05 02:42:20;;;;;;;7.38;3.28;;;26.30;46.50;;;;;;4972846;28;20096;-50
2021/01/05 02:45:12;;;;;;;5.88;2.80;;;26.30;46.40;;;;;;4971836;28;20411;-50
2021/01/05 02:47:44;;;;;;;6.43;2.70;;;26.30;46.30;;;;;;4972570;28;20027;-50
2021/01/05 02:50:40;;;;;;;5.95;3.05;;;26.30;46.20;;;;;;4972445;28;20034;-50
2021/01/05 02:53:40;;;;;;;5.32;2.83;;;26.40;46.30;;;;;;4972796;28;20530;-50
2021/01/05 02:56:39;;;;;;;7.00;2.65;;;26.40;46.20;;;;;;4972319;28;20084;-50
2021/01/05 02:59:22;;;;;;;7.65;2.60;;;26.40;46.00;;;;;;4967706;28;20038;-49
2021/01/05 03:02:25;;;;;;;5.68;2.70;;;26.50;46.10;;;;;;4972198;28;20047;-49
2021/01/05 03:04:52;;;;;;;4.55;2.45;;;26.50;46.10;;;;;;4972583;28;20473;-50
2021/01/05 03:07:27;;;;;;;4.60;2.10;;;26.50;46.00;;;;;;4972265;28;20064;-50
2021/01/05 03:10:06;;;;;;;5.80;2.30;;;26.50;45.90;;;;;;4970427;28;20023;-50
2021/01/05 03:12:54;;;;;;;6.05;2.40;;;26.50;45.90;;;;;;4971311;28;20039;-50
2021/01/05 03:15:29;;;;;;;7.00;2.10;;;26.50;45.90;;;;;;4971138;28;20038;-50
2021/01/05 03:18:11;;;;;;;3.03;2.13;;;26.50;45.80;;;;;;4972201;28;20037;-50
2021/01/05 03:20:42;;;;;;;4.35;2.20;;;26.50;45.80;;;;;;4971849;28;20038;-50
2021/01/05 03:23:12;;;;;;;6.82;2.10;;;26.50;45.70;;;;;;4972106;28;20378;-50
2021/01/05 03:25:43;;;;;;;4.30;2.20;;;26.50;45.70;;;;;;4975506;28;20027;-50
2021/01/05 03:28:14;;;;;;;4.30;1.95;;;26.50;45.70;;;;;;4975994;28;20500;-50
2021/01/05 03:30:44;;;;;;;5.60;2.10;;;26.50;45.70;;;;;;4974767;28;20393;-50
2021/01/05 03:33:12;;;;;;;3.33;1.95;;;26.50;45.60;;;;;;4975369;28;20514;-50
2021/01/05 03:35:39;;;;;;;5.28;2.05;;;26.50;45.60;;;;;;4975322;28;20058;-50
2021/01/05 03:38:06;;;;;;;4.28;1.90;;;26.50;45.60;;;;;;4975249;28;20064;-50
2021/01/05 03:40:33;;;;;;;2.40;1.60;;;26.50;45.60;;;;;;4975258;28;20057;-50
2021/01/05 03:42:59;;;;;;;6.25;1.80;;;26.50;45.60;;;;;;4975170;28;20537;-50
2021/01/05 03:45:30;;;;;;;3.13;1.58;;;26.50;45.60;;;;;;4974960;28;20112;-50
2021/01/05 03:47:57;;;;;;;12.82;10.52;;;26.50;45.60;;;;;;4975103;28;20360;-50
2021/01/05 03:50:25;;;;;;;6.50;4.45;;;26.50;45.50;;;;;;4974703;28;20034;-50
2021/01/05 03:52:51;;;;;;;8.48;5.40;;;26.50;45.50;;;;;;4974002;28;20031;-50
2021/01/05 03:55:19;;;;;;;9.25;5.65;;;26.50;45.50;;;;;;4974513;28;20042;-50
2021/01/05 03:57:46;;;;;;;10.00;5.88;;;26.40;45.40;;;;;;4974728;28;20075;-50
2021/01/05 04:00:25;;;;;;;10.25;4.63;;;26.40;45.40;;;;;;4974735;28;20030;-49
2021/01/05 04:02:57;;;;;;;9.68;4.97;;;26.50;45.50;;;;;;4974807;28;20042;-49
2021/01/05 04:05:27;;;;;;;7.53;4.90;;;26.40;45.50;;;;;;4974639;28;20078;-49
2021/01/05 04:07:54;;;;;;;8.20;4.53;;;26.50;45.50;;;;;;4975052;28;20450;-49
2021/01/05 04:10:20;;;;;;;7.03;4.07;;;26.50;45.50;;;;;;4975571;28;20066;-49
2021/01/05 04:12:47;;;;;;;6.60;3.90;;;26.50;45.40;;;;;;4974368;28;20038;-49
2021/01/05 04:15:25;;;;;;;8.52;4.00;;;26.60;45.40;;;;;;4974732;28;20026;-49
2021/01/05 04:17:52;;;;;;;6.63;3.50;;;26.70;45.30;;;;;;4974601;28;20034;-49
2021/01/05 04:20:20;;;;;;;5.80;3.58;;;26.80;45.30;;;;;;4974377;28;20116;-49
2021/01/05 04:22:47;;;;;;;7.43;3.25;;;26.90;45.20;;;;;;4974228;28;20133;-50
2021/01/05 04:25:16;;;;;;;7.45;3.30;;;27.00;45.10;;;;;;4973674;28;20031;-49
2021/01/05 04:27:44;;;;;;;5.28;3.10;;;27.10;45.10;;;;;;4974244;28;20022;-50
2021/01/05 04:30:26;;;;;;;6.75;3.13;;;27.10;44.90;;;;;;4974118;28;20110;-49
2021/01/05 04:32:55;;;;;;;5.80;3.10;;;27.30;44.90;;;;;;4974304;28;20046;-49
2021/01/05 04:35:23;;;;;;;6.97;3.17;;;27.40;44.70;;;;;;4973776;28;20026;-50
2021/01/05 04:37:50;;;;;;;7.95;2.67;;;27.40;44.50;;;;;;4973643;28;20037;-49
2021/01/05 04:40:26;;;;;;;4.57;2.38;;;27.60;44.40;;;;;;4974623;28;20481;-50
2021/01/05 04:43:23;;;;;;;3.85;2.30;;;27.60;44.20;;;;;;4974175;28;20100;-49
2021/01/05 04:46:15;;;;;;;3.92;2.58;;;27.70;44.20;;;;;;4973720;28;20054;-50
2021/01/05 04:49:05;;;;;;;4.72;2.35;;;27.80;44.00;;;;;;4974821;28;20027;-49
2021/01/05 04:51:56;;;;;;;6.82;2.50;;;27.90;43.90;;;;;;4974164;28;20019;-49
2021/01/05 04:54:43;;;;;;;5.38;2.20;;;28.10;43.90;;;;;;4973741;28;20394;-50
2021/01/05 04:57:19;;;;;;;6.70;2.22;;;28.10;43.60;;;;;;4972634;28;20100;-50
2021/01/05 05:00:01;;;;;;;3.75;2.10;;;28.20;43.50;;;;;;4972212;28;20046;-49
2021/01/05 05:02:31;;;;;;;10.35;2.22;;;28.30;43.40;;;;;;4972758;28;20108;-50
2021/01/05 05:05:11;;;;;;;6.15;2.10;;;28.30;43.20;;;;;;4973689;28;20027;-50
2021/01/05 05:07:53;;;;;;;5.63;2.00;;;28.40;43.20;;;;;;4972895;28;20076;-50
2021/01/05 05:10:28;;;;;;;5.78;1.80;;;28.50;43.10;;;;;;4972915;28;20018;-50
2021/01/05 05:13:31;;;;;;;2.95;1.80;;;28.50;42.90;;;;;;4955102;29;20489;-50
2021/01/05 05:16:31;;;;;;;4.80;1.77;;;28.60;43.00;;;;;;4954803;28;20036;-50
2021/01/05 05:19:36;;;;;;;8.57;1.75;;;28.60;42.80;;;;;;4967532;28;20034;-50
2021/01/05 05:22:27;;;;;;;4.68;1.92;;;28.60;42.60;;;;;;5008878;28;20117;-49
2021/01/05 05:24:59;;;;;;;5.07;1.75;;;28.60;42.60;;;;;;4973750;28;20034;-50
2021/01/05 05:27:47;;;;;;;4.85;1.83;;;28.60;42.50;;;;;;4973606;28;20061;-49
2021/01/05 05:30:24;;;;;;;5.10;1.98;;;28.60;42.40;;;;;;4972438;28;20037;-50
2021/01/05 05:32:58;;;;;;;5.55;1.70;;;28.50;42.40;;;;;;4972855;28;20501;-50
2021/01/05 05:35:58;;;;;;;6.20;1.60;;;28.50;43.10;;;;;;4973352;28;20030;-50
2021/01/05 05:38:49;;;;;;;6.43;1.90;;;28.50;42.60;;;;;;4974032;28;20033;-50
2021/01/05 05:41:42;;;;;;;5.10;1.75;;;28.40;42.60;;;;;;4973128;28;20070;-50
2021/01/05 05:44:23;;;;;;;4.85;1.60;;;28.30;42.60;;;;;;4949938;28;20386;-50
2021/01/05 05:47:20;;;;;;;8.20;2.00;;;28.20;42.60;;;;;;4970168;28;20076;-50
2021/01/05 05:49:46;;;;;;;8.15;2.22;;;28.10;42.70;;;;;;4972620;28;20034;-50
2021/01/05 05:52:47;;;;;;;7.97;2.08;;;28.10;43.40;;;;;;4972260;28;20045;-50
2021/01/05 05:55:35;;;;;;;4.82;1.90;;;28.00;42.90;;;;;;4971297;28;20026;-50
2021/01/05 05:58:03;;;;;;;4.65;2.30;;;27.90;42.80;;;;;;4973148;28;20027;-50
2021/01/05 06:00:39;;;;;;;7.13;2.10;;;27.80;42.80;;;;;;4972796;28;20023;-50
2021/01/05 06:03:09;;;;;;;6.78;1.90;;;27.80;42.90;;;;;;4972870;28;20047;-50
2021/01/05 06:05:38;;;;;;;7.88;2.40;;;27.70;43.00;;;;;;4973010;28;20084;-49
2021/01/05 06:08:07;;;;;;;7.28;2.33;;;27.60;43.00;;;;;;4973306;28;20034;-50
2021/01/05 06:10:35;;;;;;;8.00;2.30;;;27.60;43.10;;;;;;4973547;28;20027;-50
2021/01/05 06:13:01;;;;;;;8.02;2.30;;;27.50;43.20;;;;;;4972486;28;20031;-50
2021/01/05 06:15:28;;;;;;;6.60;2.10;;;27.40;43.20;;;;;;4971168;28;20477;-50
2021/01/05 06:17:55;;;;;;;5.88;2.17;;;27.30;43.20;;;;;;4972604;28;20371;-50
2021/01/05 06:20:21;;;;;;;7.82;2.50;;;27.30;43.40;;;;;;4972823;28;20062;-50
2021/01/05 06:22:48;;;;;;;7.80;2.45;;;27.20;43.50;;;;;;4973142;28;20073;-50
2021/01/05 06:25:15;;;;;;;7.38;2.78;;;27.10;43.50;;;;;;4972233;28;20027;-50
2021/01/05 06:27:41;;;;;;;5.05;2.15;;;27.00;43.50;;;;;;4972684;28;20027;-50
2021/01/05 06:30:08;;;;;;;6.25;2.50;;;27.00;43.70;;;;;;4972050;28;20041;-50
2021/01/05 06:32:35;;;;;;;4.93;2.50;;;26.90;43.70;;;;;;4972556;28;20034;-50
2021/01/05 06:35:02;;;;;;;7.35;2.70;;;26.80;43.80;;;;;;4972166;28;20118;-50
2021/01/05 06:37:29;;;;;;;4.90;2.58;;;26.70;43.80;;;;;;4972333;28;20062;-50
2021/01/05 06:39:55;;;;;;;6.05;2.92;;;26.70;44.00;;;;;;4972554;28;20073;-50
2021/01/05 06:42:22;;;;;;;6.50;2.47;;;26.60;44.00;;;;;;4972559;28;20035;-50
2021/01/05 06:44:49;;;;;;;7.60;2.67;;;26.50;44.10;;;;;;4971562;28;20026;-50
2021/01/05 06:47:15;;;;;;;5.68;2.40;;;26.40;44.20;;;;;;4971928;28;20074;-50
2021/01/05 06:49:42;;;;;;;8.02;2.75;;;26.30;44.20;;;;;;4972196;28;20084;-50
2021/01/05 06:52:10;;;;;;;5.80;2.30;;;26.30;44.30;;;;;;4971138;28;20062;-50
2021/01/05 06:54:36;;;;;;;10.35;2.67;;;26.20;44.50;;;;;;4971013;28;20053;-50
2021/01/05 06:57:03;;;;;;;8.93;2.90;;;26.10;44.50;;;;;;4972052;28;20057;-50
2021/01/05 06:59:30;;;;;;;5.53;2.67;;;26.10;44.60;;;;;;4972097;28;20037;-50
2021/01/05 07:02:02;;;;;;;9.70;3.03;;;26.00;44.70;;;;;;4971456;28;20054;-50
2021/01/05 07:04:29;;;;;;;10.07;2.85;;;25.90;44.70;;;;;;4971048;28;20414;-51
2021/01/05 07:06:57;;;;;;;17.05;3.53;;;25.80;44.80;;;;;;4970296;28;20034;-51
2021/01/05 07:09:24;;;;;;;9.05;2.97;;;25.70;44.80;;;;;;4966643;28;20054;-51
2021/01/05 07:11:51;;;;;;;15.55;3.22;;;25.70;44.90;;;;;;4971949;28;20034;-50
2021/01/05 07:14:21;;;;;;;10.95;2.95;;;25.60;45.10;;;;;;4965845;28;20063;-50
2021/01/05 07:16:48;;;;;;;9.95;3.22;;;25.50;45.20;;;;;;4960642;28;20065;-50
2021/01/05 18:01:44;;;;;;;11.18;4.30;;;15.50;65.10;;;;;;5092136;27;20390;-50
2021/01/05 18:04:12;;;;;;;11.98;4.43;;;15.40;64.70;;;;;;5069568;28;20029;-50
2021/01/05 18:06:39;;;;;;;17.65;4.22;;;15.60;64.50;;;;;;5070959;28;20041;-50
2021/01/05 18:09:06;;;;;;;13.82;4.32;;;15.80;64.10;;;;;;5070431;28;20043;-50
2021/01/05 18:11:33;;;;;;;21.10;4.40;;;16.00;63.70;;;;;;5070656;28;20032;-50
2021/01/05 18:14:00;;;;;;;16.55;4.40;;;16.20;64.00;;;;;;5071068;28;20107;-50
2021/01/05 18:16:28;;;;;;;16.40;4.00;;;16.40;63.00;;;;;;5070250;28;20031;-50
2021/01/05 18:18:55;;;;;;;11.00;4.00;;;16.60;62.50;;;;;;5070391;28;20108;-50
2021/01/05 18:21:25;;;;;;;10.48;3.70;;;16.70;61.90;;;;;;5070356;28;20119;-50
2021/01/05 18:23:53;;;;;;;9.82;3.78;;;16.90;62.20;;;;;;5070923;28;20075;-50
2021/01/05 18:26:20;;;;;;;9.95;3.33;;;17.10;61.10;;;;;;5070731;28;20020;-50
2021/01/05 18:28:47;;;;;;;7.80;3.22;;;17.20;60.60;;;;;;5071039;28;20021;-50
2021/01/05 18:31:14;;;;;;;11.77;3.58;;;17.40;60.10;;;;;;5070493;28;20119;-50
2021/01/05 18:33:41;;;;;;;13.63;4.38;;;17.60;59.80;;;;;;5069869;28;20020;-50
2021/01/05 18:36:09;;;;;;;10.15;4.00;;;17.80;59.50;;;;;;5070010;28;20061;-50
2021/01/05 18:38:35;;;;;;;29.70;4.40;;;17.90;59.00;;;;;;5069824;28;20107;-51
2021/01/05 18:41:02;;;;;;;19.80;3.35;;;18.00;59.20;;;;;;5068261;28;20511;-53
2021/01/05 18:43:29;;;;;;;18.92;3.63;;;18.20;58.10;;;;;;5070195;28;20047;-53
2021/01/05 18:45:55;;;;;;;21.48;3.72;;;18.40;57.80;;;;;;5070211;28;20384;-54
2021/01/05 18:48:24;;;;;;;12.43;3.53;;;18.60;57.50;;;;;;5070340;28;20033;-53
2021/01/05 18:50:52;;;;;;;13.00;3.50;;;18.70;57.10;;;;;;5069675;28;20499;-49
2021/01/05 18:53:19;;;;;;;19.05;3.65;;;18.90;56.60;;;;;;5070205;28;20064;-49
2021/01/05 18:55:45;;;;;;;23.35;4.32;;;19.10;56.20;;;;;;5069595;28;20033;-49
2021/01/05 18:58:17;;;;;;;15.55;3.72;;;19.30;55.80;;;;;;5069528;28;20028;-49
2021/01/05 19:00:43;;;;;;;14.73;3.40;;;19.40;55.50;;;;;;5070055;28;20057;-49
2021/01/05 19:03:10;;;;;;;18.73;3.38;;;19.60;55.10;;;;;;5069583;28;20107;-49
2021/01/05 19:05:38;;;;;;;12.95;3.42;;;19.70;54.70;;;;;;5069748;28;20040;-51
2021/01/05 19:08:09;;;;;;;19.85;3.55;;;19.90;54.50;;;;;;5068928;28;20052;-50
2021/01/05 19:10:36;;;;;;;21.55;4.05;;;20.00;54.00;;;;;;5065775;28;20035;-49
2021/01/05 19:13:05;;;;;;;17.45;3.05;;;20.20;54.70;;;;;;5055918;28;20467;-49
2021/01/05 19:15:32;;;;;;;21.30;3.70;;;20.30;53.60;;;;;;5063416;28;20364;-49
2021/01/05 19:17:59;;;;;;;22.45;3.42;;;20.40;53.40;;;;;;5058988;28;20025;-49
2021/01/05 19:20:29;;;;;;;14.18;3.25;;;20.60;53.20;;;;;;5056249;28;20087;-49
2021/01/05 19:22:56;;;;;;;14.82;3.30;;;20.70;52.90;;;;;;5056508;28;20075;-49
2021/01/05 19:25:26;;;;;;;16.35;2.75;;;20.90;52.60;;;;;;5056019;28;20514;-49
2021/01/05 19:27:53;;;;;;;11.85;3.25;;;21.00;52.40;;;;;;5056391;28;20059;-50
2021/01/05 19:30:25;;;;;;;11.27;2.78;;;21.20;52.20;;;;;;5054936;28;20025;-49
2021/01/05 19:33:00;;;;;;;10.57;2.97;;;21.30;51.80;;;;;;5056212;28;20059;-49
2021/01/05 19:35:28;;;;;;;13.50;2.92;;;21.50;51.60;;;;;;5056167;28;20428;-49
2021/01/05 19:37:55;;;;;;;13.98;2.90;;;21.60;51.40;;;;;;5055435;28;20105;-49
2021/01/05 19:40:24;;;;;;;9.43;2.95;;;21.70;51.10;;;;;;5056335;28;20040;-49
2021/01/05 19:42:51;;;;;;;12.82;3.10;;;21.90;50.80;;;;;;5055689;28;20025;-49
2021/01/05 19:45:38;;;;;;;9.25;2.60;;;22.00;50.60;;;;;;5055178;28;20036;-49
2021/01/05 19:48:10;;;;;;;5.55;2.22;;;22.10;50.40;;;;;;5056305;28;20032;-49
2021/01/05 19:50:38;;;;;;;9.35;2.20;;;22.20;50.10;;;;;;5055810;28;20482;-49
2021/01/05 19:53:05;;;;;;;8.88;2.47;;;22.30;50.00;;;;;;5055818;28;20534;-49
2021/01/05 19:55:32;;;;;;;14.68;2.38;;;22.50;49.70;;;;;;5055996;28;20036;-49
2021/01/05 19:57:59;;;;;;;6.65;2.30;;;22.60;49.50;;;;;;5055403;28;20040;-49
2021/01/05 20:00:34;;;;;;;9.05;1.95;;;22.70;49.30;;;;;;5055918;28;20060;-49
2021/01/05 20:03:05;;;;;;;7.57;2.03;;;22.80;49.10;;;;;;5055615;28;20033;-50
2021/01/05 20:05:32;;;;;;;8.65;2.03;;;22.90;49.00;;;;;;5053909;28;20033;-53
2021/01/05 20:08:00;;;;;;;11.30;2.20;;;23.00;48.80;;;;;;5052761;28;20025;-50
2021/01/05 20:10:30;;;;;;;15.48;3.25;;;23.10;48.60;;;;;;5054219;28;20119;-50
2021/01/05 20:12:57;;;;;;;10.57;2.50;;;23.10;48.30;;;;;;5055231;28;20028;-49
2021/01/05 20:15:26;;;;;;;9.63;2.67;;;23.20;48.30;;;;;;5055462;28;20028;-50
2021/01/05 20:17:55;;;;;;;12.30;2.65;;;23.20;48.00;;;;;;5055704;28;20031;-50
2021/01/05 20:20:25;;;;;;;11.48;2.50;;;23.30;48.10;;;;;;5055355;28;20029;-50
2021/01/05 20:22:51;;;;;;;12.98;2.72;;;23.30;48.00;;;;;;5054094;28;20040;-50
2021/01/05 20:25:20;;;;;;;8.25;2.20;;;23.40;47.80;;;;;;5054731;28;20523;-50
2021/01/05 20:27:46;;;;;;;14.23;2.55;;;23.40;47.80;;;;;;5055121;28;20036;-49
2021/01/05 20:30:21;;;;;;;21.67;4.95;;;23.40;47.70;;;;;;5052908;28;20376;-49
2021/01/05 20:32:48;;;;;;;17.70;3.35;;;23.50;47.70;;;;;;5055176;28;20040;-50
2021/01/05 20:35:16;;;;;;;28.40;3.67;;;23.50;47.50;;;;;;5054258;28;20025;-49
2021/01/05 20:37:45;;;;;;;33.38;16.08;;;23.50;47.40;;;;;;5054387;28;20110;-49
2021/01/05 20:40:14;;;;;;;23.02;6.78;;;23.50;47.30;;;;;;5054800;28;20035;-49
2021/01/05 20:42:44;;;;;;;15.73;5.03;;;23.40;47.20;;;;;;5055182;28;20017;-49
2021/01/05 20:45:19;;;;;;;22.88;4.95;;;23.50;47.20;;;;;;5054904;28;20029;-49
2021/01/05 20:47:48;;;;;;;21.50;5.88;;;23.50;47.10;;;;;;5054893;28;20486;-49
2021/01/05 20:50:16;;;;;;;19.27;5.50;;;23.40;47.10;;;;;;5054753;28;20036;-49
2021/01/05 20:52:42;;;;;;;19.90;5.80;;;23.40;47.20;;;;;;5054451;28;20444;-49
2021/01/05 20:55:10;;;;;;;16.88;5.25;;;23.30;47.30;;;;;;5054396;28;20025;-49
2021/01/05 20:57:37;;;;;;;18.92;5.35;;;23.30;47.30;;;;;;5054875;28;20017;-49
2021/01/05 21:00:09;;;;;;;16.50;5.63;;;23.30;47.40;;;;;;5054585;28;20052;-49
2021/01/05 21:02:35;;;;;;;14.68;5.55;;;23.30;47.30;;;;;;5054634;28;20032;-49
2021/01/05 21:05:02;;;;;;;16.83;5.03;;;23.30;47.40;;;;;;5054432;28;20108;-49
2021/01/05 21:07:32;;;;;;;12.43;5.00;;;23.30;47.40;;;;;;5054807;28;20029;-49
2021/01/05 21:10:00;;;;;;;15.65;5.10;;;23.30;47.40;;;;;;5054290;28;20033;-49
2021/01/05 21:12:27;;;;;;;12.80;5.40;;;23.40;47.40;;;;;;5054379;28;20096;-49
2021/01/05 21:14:54;;;;;;;11.57;4.43;;;23.50;47.40;;;;;;5054351;28;20067;-49
2021/01/05 21:17:20;;;;;;;13.60;4.32;;;23.60;47.20;;;;;;5054525;28;20028;-49
2021/01/05 21:19:47;;;;;;;14.98;4.60;;;23.70;47.10;;;;;;5054260;28;20025;-49
2021/01/05 21:22:14;;;;;;;13.95;4.65;;;23.80;47.00;;;;;;5054132;28;20035;-49
2021/01/05 21:24:40;;;;;;;13.93;4.00;;;24.00;47.00;;;;;;5053926;28;20017;-49
2021/01/05 21:27:07;;;;;;;14.23;4.50;;;24.10;46.80;;;;;;5054161;28;20028;-49
2021/01/05 21:29:33;;;;;;;12.80;3.90;;;24.30;47.30;;;;;;5053893;28;20055;-49
2021/01/05 21:32:01;;;;;;;7.28;3.58;;;24.40;46.30;;;;;;5053656;28;20365;-49
2021/01/05 21:34:28;;;;;;;13.57;3.85;;;24.60;46.10;;;;;;5053724;28;20053;-49
2021/01/05 21:36:56;;;;;;;11.90;3.70;;;24.80;46.00;;;;;;5053998;28;20025;-49
2021/01/05 21:39:24;;;;;;;12.70;3.70;;;25.00;45.80;;;;;;5053894;28;20096;-49
2021/01/05 21:41:51;;;;;;;9.02;3.72;;;25.10;45.50;;;;;;5053943;28;20029;-49
2021/01/05 21:44:18;;;;;;;10.35;3.90;;;25.30;45.40;;;;;;5053908;28;20017;-49
2021/01/05 21:46:46;;;;;;;8.70;3.40;;;25.50;45.10;;;;;;5054111;28;20025;-49
2021/01/05 21:49:15;;;;;;;8.77;3.50;;;25.60;44.80;;;;;;5054358;28;20025;-49
2021/01/05 21:51:42;;;;;;;9.98;3.67;;;25.80;44.60;;;;;;5053801;28;20029;-49
2021/01/05 21:54:12;;;;;;;11.55;3.15;;;26.00;44.50;;;;;;5053844;28;20538;-49
2021/01/05 21:56:39;;;;;;;7.57;3.00;;;26.10;44.10;;;;;;5053808;28;20052;-49
2021/01/05 21:59:06;;;;;;;10.82;3.25;;;26.30;44.00;;;;;;5053740;28;20124;-49
2021/01/05 22:01:35;;;;;;;7.85;3.03;;;26.30;43.70;;;;;;5054008;28;20025;-49
2021/01/05 22:04:02;;;;;;;6.03;2.92;;;26.50;43.60;;;;;;5053629;28;20021;-49
2021/01/05 22:06:28;;;;;;;11.35;3.13;;;26.60;43.50;;;;;;5053584;28;20469;-49
2021/01/05 22:08:55;;;;;;;6.20;2.80;;;26.70;43.30;;;;;;5053494;28;20095;-49
2021/01/05 22:11:26;;;;;;;7.28;2.90;;;26.70;43.20;;;;;;5053329;28;20534;-50
2021/01/05 22:13:54;;;;;;;9.38;2.70;;;26.80;43.10;;;;;;5053855;28;20680;-50
2021/01/05 22:16:21;;;;;;;5.38;2.53;;;26.80;42.90;;;;;;5053603;28;20113;-49
2021/01/05 22:18:52;;;;;;;7.03;2.95;;;26.80;42.90;;;;;;5054393;28;20033;-49
2021/01/05 22:21:19;;;;;;;8.77;3.13;;;26.90;42.80;;;;;;5053234;28;20464;-49
2021/01/05 22:23:47;;;;;;;7.97;2.53;;;26.90;42.80;;;;;;5053509;28;20051;-49
2021/01/05 22:26:14;;;;;;;9.82;2.80;;;26.90;42.70;;;;;;5053138;28;20029;-49
2021/01/05 22:28:41;;;;;;;4.60;2.38;;;27.00;42.70;;;;;;5053089;28;20029;-49
2021/01/05 22:31:09;;;;;;;5.65;2.55;;;27.00;42.60;;;;;;5053377;28;20071;-49
2021/01/05 22:33:35;;;;;;;6.07;2.58;;;27.00;42.60;;;;;;5053369;28;20057;-49
2021/01/05 22:36:03;;;;;;;3.72;2.20;;;27.00;42.60;;;;;;5053123;28;20426;-49
2021/01/05 22:38:31;;;;;;;5.00;2.40;;;27.00;42.60;;;;;;5052993;28;20048;-49
2021/01/05 22:40:59;;;;;;;5.57;2.35;;;26.90;42.40;;;;;;5053625;28;20025;-49
2021/01/05 22:43:31;;;;;;;5.45;1.83;;;26.90;42.40;;;;;;5053371;28;20021;-49
2021/01/05 22:46:03;;;;;;;4.90;2.20;;;26.90;42.50;;;;;;5054377;28;20025;-49
2021/01/05 22:48:31;;;;;;;5.82;2.40;;;26.90;42.40;;;;;;5057056;28;20029;-49
2021/01/05 22:50:58;;;;;;;4.95;2.10;;;26.90;42.50;;;;;;5056999;28;20046;-49
2021/01/05 22:53:25;;;;;;;6.63;2.28;;;26.80;42.50;;;;;;5057031;28;20025;-49
2021/01/05 22:55:53;;;;;;;4.38;2.05;;;26.80;42.40;;;;;;5057291;28;20465;-49
2021/01/05 22:58:22;;;;;;;6.80;2.78;;;26.80;42.30;;;;;;5055587;28;20029;-49
2021/01/05 23:00:50;;;;;;;5.10;2.33;;;26.80;42.40;;;;;;5057305;28;20049;-49
2021/01/05 23:03:18;;;;;;;7.72;2.47;;;26.70;43.00;;;;;;5057289;28;20061;-49
2021/01/05 23:05:45;;;;;;;8.38;2.50;;;26.70;42.40;;;;;;5056796;28;20427;-49
2021/01/05 23:08:25;;;;;;;7.03;2.28;;;26.60;42.30;;;;;;5056133;28;20033;-49
2021/01/05 23:10:53;;;;;;;4.97;2.15;;;26.50;42.40;;;;;;5057168;28;20037;-49
2021/01/05 23:13:22;;;;;;;9.23;2.55;;;26.50;42.60;;;;;;5056353;28;20055;-49
2021/01/05 23:15:48;;;;;;;7.82;2.58;;;26.50;42.50;;;;;;5056642;28;20028;-49
2021/01/05 23:18:20;;;;;;;6.32;2.50;;;26.40;42.60;;;;;;5055576;28;20037;-49
2021/01/05 23:20:48;;;;;;;7.53;2.63;;;26.30;42.60;;;;;;5056167;28;20032;-49
2021/01/05 23:23:16;;;;;;;10.65;2.80;;;26.30;42.80;;;;;;5057113;28;20033;-49
2021/01/05 23:25:45;;;;;;;6.10;2.35;;;26.20;42.90;;;;;;5056977;28;20116;-49
2021/01/05 23:28:12;;;;;;;8.60;2.70;;;26.10;43.00;;;;;;5056411;28;20021;-49
2021/01/05 23:30:38;;;;;;;9.32;2.75;;;26.00;43.00;;;;;;5055994;28;20025;-49
2021/01/05 23:33:07;;;;;;;9.02;2.45;;;25.90;43.00;;;;;;5055774;28;20036;-49
2021/01/05 23:35:36;;;;;;;14.57;2.83;;;25.90;43.10;;;;;;5055222;28;20074;-47
2021/01/05 23:38:04;;;;;;;5.80;2.67;;;25.80;43.20;;;;;;5038101;28;20022;-48
2021/01/05 23:40:42;;;;;;;9.73;2.65;;;25.80;43.30;;;;;;5055474;28;20036;-49
2021/01/05 23:43:33;;;;;;;10.60;2.45;;;25.60;43.30;;;;;;5056433;28;20048;-48
2021/01/05 23:46:02;;;;;;;6.78;2.75;;;25.60;43.50;;;;;;5056019;28;20029;-48
2021/01/05 23:48:29;;;;;;;10.23;2.60;;;25.50;43.60;;;;;;5056280;28;20542;-49